Capitola, California
Current Conditions -  °F | °C
As of 10:30 AM on Saturday 25 Oct 2014 (Local Time) from KWVI Reporting Station
Light Rain Light Rain  
Wind Chill: 62°   Ceiling: 400
Heat Index: 62°   Visibility: 10mi
Dew Point: 60°   Wind: 8mph
Humidity: 93%   Direction: 70°ENE
Pressure: 30.09"   Gusts: NA
Location:  36.97°N, 121.95°W
Report Text: KWVI 251730Z AUTO 07007KT 10SM -RA BKN004 OVC070 17/16 A3009 RMK AO2 P0001 T01670156
Loading
Personal Weather Stations






























Interactive Weather Map
Tropical Storm Tracking
New forecast layout! Learn more

10-Day Weather Forecast

Advertisements
Track Severe Weather on mobile